createdAt,value
2019-05-06T00:01:53.955Z,11.00
2019-05-06T00:04:20.831Z,10.93
2019-05-06T00:06:46.982Z,8.60
2019-05-06T00:09:14.704Z,11.40
2019-05-06T00:11:41.023Z,9.17
2019-05-06T00:14:07.276Z,9.67
2019-05-06T00:16:34.692Z,9.27
2019-05-06T00:19:01.186Z,7.93
2019-05-06T00:21:27.373Z,11.43
2019-05-06T00:23:54.669Z,12.00
2019-05-06T00:26:29.098Z,10.57
2019-05-06T00:28:57.258Z,11.27
2019-05-06T00:31:24.311Z,10.77
2019-05-06T00:33:50.583Z,11.30
2019-05-06T00:36:16.736Z,12.43
2019-05-06T00:38:44.884Z,10.50
2019-05-06T00:41:25.204Z,9.10
2019-05-06T00:43:51.376Z,11.80
2019-05-06T00:46:17.558Z,10.30
2019-05-06T00:48:44.904Z,12.70
2019-05-06T00:51:13.431Z,10.20
2019-05-06T00:53:43.626Z,11.83
2019-05-06T00:56:09.569Z,9.33
2019-05-06T00:58:35.731Z,10.03
2019-05-06T01:01:04.457Z,15.20
2019-05-06T01:03:30.267Z,11.90
2019-05-06T01:05:56.720Z,10.80
2019-05-06T01:08:24.049Z,12.73
2019-05-06T01:10:50.595Z,10.50
2019-05-06T01:13:24.513Z,12.60
2019-05-06T01:15:50.659Z,10.23
2019-05-06T01:18:17.171Z,13.60
2019-05-06T01:20:44.638Z,12.60
2019-05-06T01:23:11.083Z,12.47
2019-05-06T01:25:37.239Z,13.43
2019-05-06T01:28:04.265Z,11.63
2019-05-06T01:30:30.983Z,11.27
2019-05-06T01:32:57.131Z,12.20
2019-05-06T01:35:24.497Z,12.93
2019-05-06T01:37:54.565Z,9.20
2019-05-06T01:40:23.860Z,11.57
2019-05-06T01:42:55.129Z,9.77
2019-05-06T01:45:23.654Z,9.97
2019-05-06T01:47:49.727Z,10.87
2019-05-06T01:50:16.418Z,13.17
2019-05-06T01:52:44.216Z,12.10
2019-05-06T01:55:14.033Z,11.93
2019-05-06T01:57:39.742Z,12.80
2019-05-06T02:00:06.700Z,12.03
2019-05-06T02:02:34.321Z,12.90
2019-05-06T02:05:00.693Z,13.27
2019-05-06T02:07:26.844Z,11.70
2019-05-06T02:09:54.302Z,14.70
2019-05-06T02:12:20.898Z,13.57
2019-05-06T02:14:47.068Z,15.17
2019-05-06T02:17:14.375Z,18.67
2019-05-06T02:19:40.836Z,18.10
2019-05-06T02:22:08.886Z,12.50
2019-05-06T02:24:37.264Z,14.37
2019-05-06T02:27:04.489Z,11.83
2019-05-06T02:29:34.171Z,11.93
2019-05-06T02:32:26.242Z,13.57
2019-05-06T02:34:54.470Z,14.13
2019-05-06T02:37:25.465Z,18.57
2019-05-06T02:39:53.287Z,13.60
2019-05-06T02:42:20.091Z,15.00
2019-05-06T02:44:46.432Z,14.87
2019-05-06T02:47:23.063Z,12.80
2019-05-06T02:49:53.272Z,17.87
2019-05-06T02:52:18.645Z,14.03
2019-05-06T02:54:45.063Z,19.27
2019-05-06T02:57:13.142Z,16.33
2019-05-06T02:59:39.246Z,16.20
2019-05-06T03:02:05.414Z,16.43
2019-05-06T03:04:33.208Z,15.83
2019-05-06T03:06:59.598Z,16.83
2019-05-06T03:09:25.741Z,16.43
2019-05-06T03:11:53.941Z,14.37
2019-05-06T03:14:23.184Z,17.37
2019-05-06T03:16:48.381Z,15.30
2019-05-06T03:19:14.802Z,17.37
2019-05-06T03:21:46.719Z,16.87
2019-05-06T03:24:17.276Z,16.27
2019-05-06T03:26:43.939Z,15.83
2019-05-06T03:29:10.171Z,14.77
2019-05-06T03:31:36.832Z,18.33
2019-05-06T03:34:27.739Z,13.87
2019-05-06T03:36:39.710Z,14.33
2019-05-06T03:39:03.078Z,13.63
2019-05-06T03:41:33.609Z,11.90
2019-05-06T03:43:58.825Z,14.27
2019-05-06T03:46:26.964Z,18.43
2019-05-06T03:48:57.758Z,15.87
2019-05-06T03:51:23.911Z,15.53
2019-05-06T03:53:50.264Z,13.50
2019-05-06T03:56:19.751Z,16.97
2019-05-06T03:58:47.575Z,13.50
2019-05-06T04:01:14.255Z,14.43
2019-05-06T04:03:47.730Z,14.40
2019-05-06T04:06:09.454Z,15.03
2019-05-06T04:08:35.778Z,18.70
2019-05-06T04:11:03.169Z,16.20
2019-05-06T04:13:32.994Z,15.07
2019-05-06T04:16:17.334Z,15.80
2019-05-06T04:18:48.203Z,15.00
2019-05-06T04:21:16.999Z,21.57
2019-05-06T04:23:53.364Z,16.47
2019-05-06T04:26:27.291Z,17.47
2019-05-06T04:28:53.682Z,20.60
2019-05-06T04:31:22.701Z,17.10
2019-05-06T04:34:05.236Z,15.37
2019-05-06T04:36:17.830Z,18.43
2019-05-06T04:38:44.259Z,18.03
2019-05-06T04:41:13.515Z,15.50
2019-05-06T04:43:38.781Z,16.67
2019-05-06T04:46:05.210Z,15.73
2019-05-06T04:48:32.955Z,14.17
2019-05-06T04:50:59.390Z,21.00
2019-05-06T04:53:27.074Z,14.97
2019-05-06T04:55:54.085Z,15.17
2019-05-06T04:58:23.086Z,17.27
2019-05-06T05:00:48.920Z,17.23
2019-05-06T05:03:15.084Z,15.73
2019-05-06T05:05:41.222Z,13.20
2019-05-06T05:08:07.391Z,17.40
2019-05-06T05:10:39.549Z,16.90
2019-05-06T05:13:12.522Z,22.27
2019-05-06T05:15:49.475Z,18.70
2019-05-06T05:18:23.759Z,15.47
2019-05-06T05:20:49.939Z,14.13
2019-05-06T05:23:16.071Z,15.07
2019-05-06T05:25:42.662Z,16.27
2019-05-06T05:28:09.169Z,16.77
2019-05-06T05:30:35.324Z,18.53
2019-05-06T05:33:02.609Z,16.80
2019-05-06T05:35:29.058Z,14.63
2019-05-06T05:37:55.192Z,14.63
2019-05-06T05:40:22.609Z,17.37
2019-05-06T05:42:59.736Z,15.17
2019-05-06T05:45:26.001Z,17.00
2019-05-06T05:47:54.452Z,17.50
2019-05-06T05:50:22.946Z,13.03
2019-05-06T05:52:49.279Z,15.30
2019-05-06T05:55:15.418Z,18.47
2019-05-06T05:57:43.227Z,15.07
2019-05-06T06:00:10.027Z,13.60
2019-05-06T06:02:36.176Z,14.03
2019-05-06T06:05:03.978Z,20.17
2019-05-06T06:07:32.638Z,15.17
2019-05-06T06:10:03.291Z,18.27
2019-05-06T06:12:29.452Z,14.70
2019-05-06T06:15:03.071Z,17.67
2019-05-06T06:17:43.535Z,15.47
2019-05-06T06:20:29.105Z,22.37
2019-05-06T06:22:56.860Z,18.83
2019-05-06T06:25:23.762Z,22.03
2019-05-06T06:27:52.220Z,15.10
2019-05-06T06:30:22.142Z,16.80
2019-05-06T06:32:49.203Z,15.63
2019-05-06T06:35:20.072Z,16.43
2019-05-06T06:37:52.392Z,15.47
2019-05-06T06:40:22.213Z,13.50
2019-05-06T06:42:52.319Z,14.80
2019-05-06T06:45:18.599Z,17.23
2019-05-06T06:47:44.847Z,14.90
2019-05-06T06:50:12.548Z,19.37
2019-05-06T06:52:38.938Z,17.13
2019-05-06T06:55:06.502Z,14.53
2019-05-06T06:57:38.020Z,13.90
2019-05-06T07:00:12.524Z,14.43
2019-05-06T07:02:57.529Z,15.47
2019-05-06T07:05:34.535Z,17.40
2019-05-06T07:08:02.157Z,17.23
2019-05-06T07:10:43.841Z,18.23
2019-05-06T07:13:12.154Z,15.77
2019-05-06T07:15:38.888Z,17.00
2019-05-06T07:18:05.823Z,15.10
2019-05-06T07:20:36.678Z,14.13
2019-05-06T07:23:04.899Z,16.03
2019-05-06T07:25:33.502Z,14.77
2019-05-06T07:27:59.111Z,17.90
2019-05-06T07:52:56.325Z,10.83
2019-05-06T07:55:22.966Z,15.50
2019-05-06T07:57:50.599Z,11.67
2019-05-06T08:00:17.360Z,13.03
2019-05-06T08:02:43.594Z,12.37
2019-05-06T08:05:10.034Z,11.53
2019-05-06T08:07:36.267Z,11.27
2019-05-06T08:10:04.439Z,10.47
2019-05-06T08:12:32.622Z,12.87
2019-05-06T08:14:59.075Z,10.33
2019-05-06T08:17:27.196Z,9.93
2019-05-06T08:19:53.394Z,10.23
2019-05-06T08:22:22.715Z,10.57
2019-05-06T08:24:48.992Z,10.67
2019-05-06T08:27:15.150Z,12.23
2019-05-06T08:29:42.450Z,11.47
2019-05-06T08:32:08.983Z,11.07
2019-05-06T08:34:35.648Z,11.47
2019-05-06T08:37:06.190Z,12.10
2019-05-06T08:39:32.782Z,12.27
2019-05-06T08:41:58.969Z,10.00
2019-05-06T08:44:25.216Z,10.57
2019-05-06T08:46:53.430Z,11.73
2019-05-06T08:49:19.566Z,10.35
2019-05-06T08:52:04.643Z,13.70
2019-05-06T08:54:38.222Z,11.33
2019-05-06T08:57:04.369Z,13.07
2019-05-06T08:59:32.075Z,11.93
2019-05-06T09:02:03.264Z,9.43
2019-05-06T09:04:31.939Z,13.73
2019-05-06T09:06:57.559Z,15.23
2019-05-06T09:09:23.706Z,11.30
2019-05-06T09:11:50.039Z,12.83
2019-05-06T09:14:16.472Z,11.13
2019-05-06T09:16:43.755Z,11.37
2019-05-06T09:19:12.675Z,13.47
2019-05-06T09:21:38.630Z,12.20
2019-05-06T09:24:05.046Z,14.87
2019-05-06T09:26:36.406Z,11.90
2019-05-06T09:29:13.804Z,13.23
2019-05-06T09:31:52.219Z,16.40
2019-05-06T09:34:35.756Z,15.47
2019-05-06T09:37:13.292Z,14.20
2019-05-06T09:39:43.215Z,17.00
2019-05-06T09:42:10.075Z,14.97
2019-05-06T09:44:36.267Z,20.63
2019-05-06T09:47:03.841Z,18.90
2019-05-06T09:49:32.946Z,17.60
2019-05-06T09:51:59.158Z,15.53
2019-05-06T09:54:39.285Z,15.33
2019-05-06T09:57:13.243Z,16.33
2019-05-06T09:59:39.703Z,16.27
2019-05-06T10:02:05.857Z,21.27
2019-05-06T10:04:32.521Z,19.43
2019-05-06T10:07:00.114Z,22.20
2019-05-06T10:09:26.511Z,18.80
2019-05-06T10:11:52.913Z,19.40
2019-05-06T10:14:19.330Z,21.77
2019-05-06T10:16:46.670Z,21.70
2019-05-06T10:19:13.485Z,21.93
2019-05-06T10:21:39.900Z,22.53
2019-05-06T10:24:06.196Z,20.60
2019-05-06T10:26:34.256Z,21.40
2019-05-06T10:29:02.741Z,19.93
2019-05-06T10:31:32.680Z,20.73
2019-05-06T10:34:13.827Z,18.80
2019-05-06T10:36:54.158Z,19.60
2019-05-06T10:39:24.163Z,21.27
2019-05-06T10:41:56.383Z,17.47
2019-05-06T10:44:32.961Z,18.50
2019-05-06T10:46:59.583Z,19.80
2019-05-06T10:49:25.721Z,17.80
2019-05-06T10:51:56.718Z,19.40
2019-05-06T10:54:22.995Z,15.17
2019-05-06T10:56:57.583Z,16.13
2019-05-06T10:59:24.079Z,14.23
2019-05-06T11:01:52.207Z,13.37
2019-05-06T11:04:18.361Z,15.30
2019-05-06T11:06:44.723Z,16.70
2019-05-06T11:09:13.368Z,14.20
2019-05-06T11:11:39.089Z,15.30
2019-05-06T11:14:05.490Z,14.70
2019-05-06T11:16:33.282Z,16.87
2019-05-06T11:18:59.594Z,15.47
2019-05-06T11:21:25.748Z,15.27
2019-05-06T11:23:52.680Z,15.30
2019-05-06T11:26:19.050Z,13.37
2019-05-06T11:28:47.494Z,14.17
2019-05-06T11:31:15.748Z,12.63
2019-05-06T11:33:47.686Z,12.43
2019-05-06T11:36:16.024Z,13.37
2019-05-06T11:38:44.242Z,12.03
2019-05-06T11:41:13.206Z,15.10
2019-05-06T11:43:39.840Z,12.93
2019-05-06T11:46:06.026Z,10.37
2019-05-06T11:48:32.950Z,11.60
2019-05-06T11:51:01.142Z,11.67
2019-05-06T11:53:27.371Z,10.60
2019-05-06T11:55:54.847Z,11.47
2019-05-06T11:58:38.176Z,11.20
2019-05-06T12:01:06.651Z,8.53
2019-05-06T12:03:33.300Z,11.87
2019-05-06T12:05:59.442Z,13.20
2019-05-06T12:08:25.632Z,12.00
2019-05-06T12:10:52.045Z,11.73
2019-05-06T12:13:18.467Z,12.40
2019-05-06T12:15:44.690Z,13.60
2019-05-06T12:18:12.511Z,10.13
2019-05-06T12:20:42.581Z,12.13
2019-05-06T12:23:08.885Z,12.80
2019-05-06T12:25:35.019Z,15.73
2019-05-06T12:28:09.321Z,11.67
2019-05-06T12:30:35.625Z,14.70
2019-05-06T12:33:04.068Z,11.70
2019-05-06T12:35:32.235Z,13.87
2019-05-06T12:38:05.189Z,16.27
2019-05-06T12:40:28.546Z,15.07
2019-05-06T12:43:12.895Z,16.13
2019-05-06T12:45:42.949Z,13.40
2019-05-06T12:48:13.045Z,15.47
2019-05-06T12:50:39.438Z,13.17
2019-05-06T12:53:05.578Z,12.60
2019-05-06T12:55:33.634Z,12.03
2019-05-06T12:58:00.108Z,13.10
2019-05-06T13:00:28.626Z,15.57
2019-05-06T13:02:55.156Z,17.40
2019-05-06T13:05:21.885Z,13.80
2019-05-06T13:07:49.038Z,12.50
2019-05-06T13:10:18.307Z,13.07
2019-05-06T13:12:46.428Z,13.93
2019-05-06T13:15:13.496Z,17.50
2019-05-06T13:17:39.816Z,12.80
2019-05-06T13:20:06.268Z,14.50
2019-05-06T13:22:40.096Z,13.87
2019-05-06T13:25:06.508Z,16.97
2019-05-06T13:27:32.906Z,15.47
2019-05-06T13:30:02.314Z,14.23
2019-05-06T13:32:31.870Z,13.93
2019-05-06T13:34:59.090Z,15.23
2019-05-06T13:37:25.547Z,14.13
2019-05-06T13:39:52.936Z,14.03
2019-05-06T13:42:22.618Z,17.80
2019-05-06T13:44:49.054Z,12.97
2019-05-06T13:47:17.084Z,16.30
2019-05-06T13:49:46.131Z,15.53
2019-05-06T13:52:12.824Z,19.73
2019-05-06T13:54:39.100Z,13.77
2019-05-06T13:57:05.278Z,16.03
2019-05-06T13:59:34.770Z,12.97
2019-05-06T14:02:16.610Z,15.27
2019-05-06T14:04:44.366Z,16.33
2019-05-06T14:07:13.051Z,17.43
2019-05-06T14:09:40.121Z,15.60
2019-05-06T14:12:07.035Z,15.80
2019-05-06T14:14:33.181Z,17.67
2019-05-06T14:16:59.643Z,14.80
2019-05-06T14:19:25.783Z,14.33
2019-05-06T14:21:52.419Z,16.53
2019-05-06T14:24:18.777Z,17.20
2019-05-06T14:26:49.957Z,16.70
2019-05-06T14:29:18.007Z,14.07
2019-05-06T14:31:46.049Z,17.00
2019-05-06T14:34:14.241Z,14.80
2019-05-06T14:36:40.226Z,16.20
2019-05-06T14:39:08.691Z,18.00
2019-05-06T14:41:37.502Z,16.23
2019-05-06T14:44:05.261Z,15.13
2019-05-06T14:46:49.232Z,17.73
2019-05-06T14:49:15.367Z,17.97
2019-05-06T14:51:42.665Z,18.33
2019-05-06T14:54:09.109Z,18.33
2019-05-06T14:56:39.946Z,16.40
2019-05-06T14:59:06.870Z,17.83
2019-05-06T15:01:33.827Z,14.27
2019-05-06T15:04:00.792Z,14.47
2019-05-06T15:06:27.007Z,14.60
2019-05-06T15:08:53.145Z,13.53
2019-05-06T15:11:19.319Z,12.50
2019-05-06T15:13:46.194Z,12.30
2019-05-06T15:16:13.180Z,13.00
2019-05-06T15:18:40.128Z,15.60
2019-05-06T15:21:32.319Z,10.70
2019-05-06T15:23:35.921Z,12.53
2019-05-06T15:26:03.038Z,11.43
2019-05-06T15:28:29.612Z,12.77
2019-05-06T15:31:00.465Z,11.80
2019-05-06T15:33:32.933Z,10.80
2019-05-06T15:36:04.251Z,10.90
2019-05-06T15:38:31.062Z,10.37
2019-05-06T15:40:57.205Z,10.40
2019-05-06T15:43:24.478Z,9.33
2019-05-06T15:45:52.664Z,9.53
2019-05-06T15:48:18.999Z,8.33
2019-05-06T15:50:45.954Z,8.40
2019-05-06T15:53:12.677Z,6.80
2019-05-06T15:55:39.102Z,7.63
2019-05-06T15:58:05.265Z,10.13
2019-05-06T16:00:33.097Z,9.53
2019-05-06T16:02:59.774Z,7.60
2019-05-06T16:05:26.791Z,6.60
2019-05-06T16:07:53.188Z,7.80
2019-05-06T16:10:22.382Z,6.70
2019-05-06T16:12:48.861Z,7.10
2019-05-06T16:15:15.511Z,8.60
2019-05-06T16:17:42.611Z,7.93
2019-05-06T16:20:09.276Z,8.90
2019-05-06T16:22:35.454Z,9.60
2019-05-06T16:25:07.994Z,7.60
2019-05-06T16:27:34.157Z,7.80
2019-05-06T16:30:03.150Z,8.27
2019-05-06T16:32:29.576Z,10.07
2019-05-06T16:34:55.950Z,9.97
2019-05-06T16:37:22.444Z,9.60
2019-05-06T16:39:48.600Z,8.27
2019-05-06T16:42:14.734Z,9.63
2019-05-06T16:44:45.176Z,11.97
2019-05-06T16:47:09.142Z,13.77
2019-05-06T16:49:35.317Z,9.33
2019-05-06T16:52:02.546Z,10.07
2019-05-06T16:54:29.394Z,9.27
2019-05-06T16:57:06.080Z,13.63
2019-05-06T16:59:33.460Z,12.93
2019-05-06T17:02:01.661Z,11.37
2019-05-06T17:04:32.870Z,8.37
2019-05-06T17:06:58.390Z,11.17
2019-05-06T17:09:27.691Z,9.03
2019-05-06T17:11:52.568Z,8.77
2019-05-06T17:14:19.849Z,10.40
2019-05-06T17:16:45.979Z,12.03
2019-05-06T17:19:12.845Z,9.97
2019-05-06T17:21:39.418Z,8.47
2019-05-06T17:24:05.787Z,10.17
2019-05-06T17:26:33.679Z,9.77
2019-05-06T17:29:02.708Z,10.33
2019-05-06T17:31:42.265Z,15.57
2019-05-06T17:34:25.590Z,11.17
2019-05-06T17:36:53.940Z,10.90
2019-05-06T17:39:22.598Z,11.57
2019-05-06T17:41:49.271Z,10.27
2019-05-06T17:44:16.782Z,10.17
2019-05-06T17:47:02.662Z,10.50
2019-05-06T17:49:30.834Z,11.67
2019-05-06T17:52:07.415Z,11.37
2019-05-06T17:54:34.570Z,13.00
2019-05-06T17:57:03.851Z,13.37
2019-05-06T17:59:29.137Z,13.33
2019-05-06T18:01:57.233Z,14.47
2019-05-06T18:04:23.723Z,13.30
2019-05-06T18:06:52.474Z,13.17
2019-05-06T18:09:19.278Z,13.93
2019-05-06T18:11:57.928Z,14.40
2019-05-06T18:14:14.298Z,12.73
2019-05-06T18:16:42.754Z,13.13
2019-05-06T18:19:09.099Z,12.57
2019-05-06T18:21:35.475Z,15.00
2019-05-06T18:24:03.006Z,12.77
2019-05-06T18:26:29.418Z,15.40
2019-05-06T18:28:58.349Z,13.77
2019-05-06T18:31:23.879Z,13.70
2019-05-06T18:33:52.610Z,16.33
2019-05-06T18:36:18.334Z,13.70
2019-05-06T18:38:44.475Z,14.53
2019-05-06T18:41:11.966Z,12.63
2019-05-06T18:43:38.383Z,13.67
2019-05-06T18:46:04.902Z,19.53
2019-05-06T18:48:35.047Z,14.60
2019-05-06T18:51:00.162Z,14.57
2019-05-06T18:53:26.300Z,14.70
2019-05-06T18:55:52.469Z,13.63
2019-05-06T18:58:18.608Z,14.70
2019-05-06T19:00:44.771Z,14.40
2019-05-06T19:03:12.155Z,15.90
2019-05-06T19:05:42.824Z,14.47
2019-05-06T19:08:14.595Z,14.73
2019-05-06T19:10:42.472Z,14.60
2019-05-06T19:13:08.859Z,17.13
2019-05-06T19:15:35.787Z,13.90
2019-05-06T19:18:02.302Z,16.07
2019-05-06T19:20:28.634Z,14.50
2019-05-06T19:22:54.878Z,15.70
2019-05-06T19:25:22.728Z,14.97
2019-05-06T19:27:48.999Z,15.23
2019-05-06T19:30:15.646Z,16.93
2019-05-06T19:32:42.482Z,16.77
2019-05-06T19:35:10.349Z,15.40
2019-05-06T19:37:36.790Z,15.33
2019-05-06T19:40:04.958Z,13.83
2019-05-06T19:42:45.588Z,15.30
2019-05-06T19:44:59.646Z,16.10
2019-05-06T19:47:25.799Z,16.83
2019-05-06T19:49:53.198Z,14.00
2019-05-06T19:52:19.603Z,16.57
2019-05-06T19:54:45.774Z,16.10
2019-05-06T19:57:12.164Z,15.28
2019-05-06T19:59:42.274Z,14.63
2019-05-06T20:02:08.067Z,16.00
2019-05-06T20:04:35.260Z,16.90
2019-05-06T20:07:13.316Z,13.43
2019-05-06T20:09:47.423Z,15.03
2019-05-06T20:12:23.027Z,15.40
2019-05-06T20:14:49.337Z,16.10
2019-05-06T20:17:15.479Z,15.90
2019-05-06T20:19:42.613Z,13.73
2019-05-06T20:22:08.902Z,13.53
2019-05-06T20:24:35.039Z,12.00
2019-05-06T20:27:02.388Z,13.50
2019-05-06T20:29:32.427Z,12.97
2019-05-06T20:31:58.214Z,13.67
2019-05-06T20:34:24.397Z,13.53
2019-05-06T20:36:52.620Z,12.73
2019-05-06T20:39:18.610Z,11.27
2019-05-06T20:41:44.766Z,11.93
2019-05-06T20:44:12.356Z,14.17
2019-05-06T20:46:38.662Z,12.17
2019-05-06T20:49:04.810Z,11.17
2019-05-06T20:51:32.803Z,11.17
2019-05-06T20:53:59.017Z,13.67
2019-05-06T20:56:25.423Z,9.17
2019-05-06T20:58:52.864Z,12.20
2019-05-06T21:01:19.124Z,10.27
2019-05-06T21:03:45.263Z,12.00
2019-05-06T21:06:13.148Z,8.87
2019-05-06T21:08:39.450Z,8.40
2019-05-06T21:11:05.695Z,11.17
2019-05-06T21:13:34.901Z,10.13
2019-05-06T21:16:02.058Z,10.23
2019-05-06T21:18:28.349Z,10.53
2019-05-06T21:20:54.488Z,10.23
2019-05-06T21:23:22.680Z,10.20
2019-05-06T21:25:48.690Z,9.07
2019-05-06T21:28:14.843Z,9.97
2019-05-06T21:30:42.908Z,10.70
2019-05-06T21:33:09.307Z,13.43
2019-05-06T21:35:35.510Z,9.07
2019-05-06T21:38:02.514Z,10.00
2019-05-06T21:40:29.031Z,9.00
2019-05-06T21:42:55.170Z,13.60
2019-05-06T21:45:22.127Z,11.50
2019-05-06T21:47:48.716Z,10.17
2019-05-06T21:50:15.455Z,9.00
2019-05-06T21:52:43.107Z,9.17
2019-05-06T21:55:10.048Z,11.00
2019-05-06T21:57:36.183Z,10.37
2019-05-06T22:00:05.950Z,8.30
2019-05-06T22:02:34.378Z,10.60
2019-05-06T22:05:02.711Z,9.40
2019-05-06T22:07:28.583Z,9.67
2019-05-06T22:09:54.731Z,9.53
2019-05-06T22:12:24.365Z,10.53
2019-05-06T22:14:49.319Z,11.33
2019-05-06T22:17:15.823Z,12.33
2019-05-06T22:19:42.747Z,14.17
2019-05-06T22:22:12.433Z,10.67
2019-05-06T22:24:52.515Z,11.10
2019-05-06T22:27:17.252Z,10.67
2019-05-06T22:29:43.627Z,10.93
2019-05-06T22:32:11.924Z,11.20
2019-05-06T22:34:38.188Z,11.37
2019-05-06T22:37:04.318Z,11.80
2019-05-06T22:39:31.709Z,11.57
2019-05-06T22:41:58.518Z,9.53
2019-05-06T22:44:24.659Z,11.67
2019-05-06T22:46:51.070Z,11.77
2019-05-06T22:49:17.215Z,11.73
2019-05-06T22:51:43.363Z,9.77
2019-05-06T22:54:09.497Z,11.80
2019-05-06T22:56:36.006Z,10.03
2019-05-06T22:59:03.311Z,9.03
2019-05-06T23:01:46.752Z,10.90
2019-05-06T23:04:14.806Z,11.20
2019-05-06T23:06:40.953Z,9.73
2019-05-06T23:09:08.627Z,10.67
2019-05-06T23:11:36.482Z,10.30
2019-05-06T23:14:02.940Z,12.40
2019-05-06T23:16:29.295Z,13.33
2019-05-06T23:18:55.435Z,9.37
2019-05-06T23:21:23.234Z,11.77
2019-05-06T23:23:49.684Z,12.40
2019-05-06T23:26:16.922Z,12.50
2019-05-06T23:28:43.702Z,10.83
2019-05-06T23:31:10.098Z,11.33
2019-05-06T23:33:37.363Z,12.43
2019-05-06T23:36:03.496Z,12.60
2019-05-06T23:39:08.391Z,13.23
2019-05-06T23:42:12.642Z,13.43
2019-05-06T23:45:16.475Z,13.13
2019-05-06T23:48:20.161Z,12.57
2019-05-06T23:51:24.036Z,15.07
2019-05-06T23:54:28.195Z,12.70
2019-05-06T23:56:54.134Z,11.73
2019-05-06T23:59:22.449Z,12.30
